createdAt,value
2022-11-29T00:02:03.953Z,19.75
2022-11-29T00:04:30.824Z,23.17
2022-11-29T00:06:57.421Z,19.23
2022-11-29T00:09:24.007Z,19.85
2022-11-29T00:12:09.561Z,19.77
2022-11-29T00:14:36.169Z,20.10
2022-11-29T00:17:04.264Z,21.45
2022-11-29T00:19:32.941Z,17.85
2022-11-29T00:22:00.406Z,19.85
2022-11-29T00:24:27.205Z,23.92
2022-11-29T00:26:53.775Z,16.48
2022-11-29T00:29:21.443Z,24.40
2022-11-29T00:31:48.132Z,24.80
2022-11-29T00:34:14.770Z,18.60
2022-11-29T00:36:41.539Z,21.02
2022-11-29T00:39:11.532Z,21.90
2022-11-29T00:41:38.819Z,20.55
2022-11-29T00:44:05.529Z,20.42
2022-11-29T00:46:32.135Z,19.50
2022-11-29T00:48:59.051Z,16.13
2022-11-29T00:51:25.648Z,18.60
2022-11-29T00:53:52.223Z,21.90
2022-11-29T00:56:18.803Z,23.35
2022-11-29T00:58:45.675Z,18.15
2022-11-29T01:01:12.399Z,18.13
2022-11-29T01:03:39.392Z,21.92
2022-11-29T01:06:11.498Z,17.23
2022-11-29T01:08:38.666Z,19.50
2022-11-29T01:11:13.931Z,17.52
2022-11-29T01:13:42.596Z,19.25
2022-11-29T01:16:09.615Z,25.02
2022-11-29T01:18:36.896Z,20.55
2022-11-29T01:21:07.421Z,28.05
2022-11-29T01:23:35.021Z,21.67
2022-11-29T01:26:05.244Z,21.70
2022-11-29T01:28:32.333Z,18.92
2022-11-29T01:30:59.133Z,16.80
2022-11-29T01:33:26.267Z,22.15
2022-11-29T01:35:54.668Z,18.45
2022-11-29T01:38:22.321Z,25.27
2022-11-29T01:41:07.271Z,21.00
2022-11-29T01:43:52.815Z,18.80
2022-11-29T01:46:19.453Z,17.08
2022-11-29T01:48:46.102Z,20.52
2022-11-29T01:51:12.697Z,20.08
2022-11-29T01:53:40.099Z,20.80
2022-11-29T01:56:07.986Z,22.02
2022-11-29T02:01:26.440Z,20.38
2022-11-29T02:03:53.606Z,19.30
2022-11-29T02:06:20.608Z,22.23
2022-11-29T02:08:47.204Z,20.70
2022-11-29T02:11:32.480Z,21.13
2022-11-29T02:14:40.107Z,20.05
2022-11-29T02:17:18.660Z,23.48
2022-11-29T02:20:22.956Z,24.83
2022-11-29T02:23:04.947Z,26.55
2022-11-29T02:25:34.608Z,17.00
2022-11-29T02:28:16.624Z,20.23
2022-11-29T02:31:27.307Z,17.58
2022-11-29T02:34:11.059Z,19.50
2022-11-29T02:36:46.319Z,23.38
2022-11-29T02:39:34.678Z,28.85
2022-11-29T02:42:26.047Z,21.30
2022-11-29T02:45:04.592Z,23.92
2022-11-29T02:48:07.833Z,23.65
2022-11-29T02:50:56.044Z,20.05
2022-11-29T02:53:56.228Z,18.75
2022-11-29T02:56:51.428Z,18.88
2022-11-29T02:59:47.785Z,18.15
2022-11-29T03:02:22.808Z,20.77
2022-11-29T03:05:20.364Z,19.73
2022-11-29T03:07:53.651Z,17.95
2022-11-29T03:11:04.457Z,23.38
2022-11-29T03:13:54.277Z,19.50
2022-11-29T03:16:42.973Z,26.95
2022-11-29T03:19:40.840Z,25.30
2022-11-29T03:22:31.628Z,21.63
2022-11-29T03:25:18.476Z,23.23
2022-11-29T03:28:04.220Z,24.10
2022-11-29T03:30:34.405Z,18.83
2022-11-29T03:33:21.430Z,25.83
2022-11-29T03:36:01.777Z,18.92
2022-11-29T03:38:34.039Z,20.65
2022-11-29T03:43:53.108Z,15.70
2022-11-29T03:46:52.171Z,22.55
2022-11-29T03:49:43.523Z,26.05
2022-11-29T03:52:15.728Z,26.63
2022-11-29T03:55:07.086Z,22.40
2022-11-29T03:57:51.019Z,22.80
2022-11-29T04:00:19.020Z,17.02
2022-11-29T04:03:05.902Z,17.60
2022-11-29T04:05:47.518Z,20.92
2022-11-29T04:08:33.608Z,16.27
2022-11-29T04:11:59.030Z,22.63
2022-11-29T04:14:56.673Z,21.65
2022-11-29T04:17:29.005Z,25.00
2022-11-29T04:22:49.889Z,19.60
2022-11-29T04:25:32.001Z,19.05
2022-11-29T04:28:23.396Z,18.08
2022-11-29T04:30:49.956Z,21.42
2022-11-29T04:33:30.100Z,25.30
2022-11-29T04:36:41.434Z,25.38
2022-11-29T04:39:22.994Z,19.00
2022-11-29T04:42:40.328Z,19.47
2022-11-29T04:45:12.249Z,22.25
2022-11-29T04:47:56.086Z,19.95
2022-11-29T04:50:37.477Z,19.60
2022-11-29T04:53:41.907Z,22.73
2022-11-29T04:56:40.036Z,20.48
2022-11-29T04:59:29.589Z,20.25
2022-11-29T05:02:08.298Z,25.98
2022-11-29T05:04:56.037Z,32.42
2022-11-29T05:07:50.834Z,24.63
2022-11-29T05:10:36.502Z,19.10
2022-11-29T05:13:31.235Z,23.38
2022-11-29T05:16:07.950Z,20.90
2022-11-29T05:18:40.344Z,25.25
2022-11-29T05:21:21.320Z,20.13
2022-11-29T05:24:06.688Z,20.65
2022-11-29T05:26:45.153Z,22.23
2022-11-29T05:29:33.004Z,22.02
2022-11-29T05:32:21.232Z,22.88
2022-11-29T05:34:51.109Z,28.67
2022-11-29T05:37:27.050Z,26.13
2022-11-29T05:40:08.956Z,21.75
2022-11-29T05:43:00.893Z,18.10
2022-11-29T05:45:49.545Z,24.17
2022-11-29T05:48:27.347Z,27.85
2022-11-29T05:51:01.319Z,18.95
2022-11-29T05:53:43.209Z,24.83
2022-11-29T05:56:21.754Z,18.48
2022-11-29T05:58:54.219Z,23.35
2022-11-29T06:01:24.747Z,19.55
2022-11-29T06:04:18.946Z,19.80
2022-11-29T06:07:02.358Z,18.95
2022-11-29T06:09:44.216Z,20.02
2022-11-29T06:12:21.563Z,22.20
2022-11-29T06:15:29.997Z,23.15
2022-11-29T06:18:26.039Z,18.13
2022-11-29T06:21:31.055Z,21.17
2022-11-29T06:24:28.048Z,21.05
2022-11-29T06:27:22.920Z,18.88
2022-11-29T06:29:57.910Z,19.15
2022-11-29T06:32:36.013Z,17.23
2022-11-29T06:35:07.336Z,24.60
2022-11-29T06:37:44.971Z,17.23
2022-11-29T06:40:14.218Z,17.42
2022-11-29T06:42:40.785Z,20.50
2022-11-29T06:45:10.354Z,17.00
2022-11-29T06:47:45.188Z,23.20
2022-11-29T06:50:36.192Z,20.45
2022-11-29T06:53:26.047Z,22.92
2022-11-29T06:56:07.016Z,20.75
2022-11-29T06:58:55.414Z,21.90
2022-11-29T07:01:56.118Z,19.75
2022-11-29T07:04:46.379Z,18.48
2022-11-29T07:07:18.847Z,22.92
2022-11-29T07:12:13.268Z,20.10
2022-11-29T07:14:40.195Z,24.90
2022-11-29T07:17:22.592Z,20.38
2022-11-29T07:20:03.346Z,22.15
2022-11-29T07:22:57.868Z,18.35
2022-11-29T07:26:06.625Z,24.17
2022-11-29T07:28:33.132Z,22.40
2022-11-29T07:31:13.444Z,18.33
2022-11-29T07:34:10.749Z,29.20
2022-11-29T07:37:00.503Z,26.35
2022-11-29T07:39:39.043Z,18.35
2022-11-29T07:42:38.061Z,19.42
2022-11-29T07:45:27.621Z,16.70
2022-11-29T07:47:54.240Z,17.65
2022-11-29T07:50:21.485Z,21.63
2022-11-29T07:52:49.054Z,27.38
2022-11-29T07:55:19.138Z,23.90
2022-11-29T07:57:46.493Z,23.45
2022-11-29T08:00:14.035Z,17.08
2022-11-29T08:02:41.739Z,23.65
2022-11-29T08:05:09.364Z,20.13
2022-11-29T08:07:37.747Z,31.35
2022-11-29T08:10:07.629Z,21.95
2022-11-29T08:12:34.256Z,22.95
2022-11-29T08:15:01.501Z,22.73
2022-11-29T08:17:28.266Z,27.95
2022-11-29T08:19:54.841Z,27.95
2022-11-29T08:22:21.426Z,18.42
2022-11-29T08:24:48.408Z,20.52
2022-11-29T08:27:15.129Z,21.63
2022-11-29T08:29:41.729Z,20.98
2022-11-29T08:32:08.996Z,21.35
2022-11-29T08:34:35.611Z,25.75
2022-11-29T08:37:02.250Z,30.23
2022-11-29T08:39:28.818Z,25.80
2022-11-29T08:41:55.422Z,22.08
2022-11-29T08:44:22.105Z,18.77
2022-11-29T08:47:07.159Z,24.15
2022-11-29T08:49:33.796Z,18.92
2022-11-29T08:52:32.197Z,26.60
2022-11-29T08:55:02.970Z,21.50
2022-11-29T08:57:39.859Z,30.40
2022-11-29T09:00:08.754Z,23.27
2022-11-29T09:02:37.051Z,21.25
2022-11-29T09:05:05.342Z,23.60
2022-11-29T09:07:32.542Z,22.40
2022-11-29T09:10:00.901Z,22.73
2022-11-29T09:12:27.544Z,23.38
2022-11-29T09:14:54.128Z,33.95
2022-11-29T09:17:20.733Z,24.27
2022-11-29T09:19:47.348Z,21.45
2022-11-29T09:22:13.924Z,26.88
2022-11-29T09:24:40.520Z,24.05
2022-11-29T09:27:07.161Z,29.77
2022-11-29T09:29:33.879Z,21.58
2022-11-29T09:32:00.512Z,25.42
2022-11-29T09:34:27.137Z,20.80
2022-11-29T09:36:53.822Z,26.58
2022-11-29T09:39:20.471Z,21.65
2022-11-29T09:42:19.283Z,22.98
2022-11-29T09:45:14.484Z,23.67
2022-11-29T09:47:59.822Z,22.58
2022-11-29T09:51:12.802Z,22.33
2022-11-29T09:53:49.460Z,28.45
2022-11-29T09:56:22.023Z,26.42
2022-11-29T09:58:57.779Z,23.42
2022-11-29T10:01:29.890Z,22.40
2022-11-29T10:04:12.172Z,23.80
2022-11-29T10:06:43.125Z,25.77
2022-11-29T10:09:19.117Z,21.67
2022-11-29T10:11:57.703Z,22.42
2022-11-29T10:14:34.309Z,28.38
2022-11-29T10:17:12.581Z,31.73
2022-11-29T10:19:51.276Z,27.02
2022-11-29T10:22:34.652Z,23.27
2022-11-29T10:25:02.656Z,32.30
2022-11-29T10:27:29.989Z,29.27
2022-11-29T10:29:59.157Z,23.27
2022-11-29T10:32:30.701Z,29.42
2022-11-29T10:34:58.570Z,27.38
2022-11-29T10:37:25.251Z,24.42
2022-11-29T10:39:59.361Z,35.95
2022-11-29T10:42:47.530Z,36.05
2022-11-29T10:45:17.045Z,30.35
2022-11-29T10:47:47.020Z,26.70
2022-11-29T10:50:19.551Z,24.77
2022-11-29T10:52:46.221Z,29.55
2022-11-29T10:55:15.864Z,36.08
2022-11-29T10:58:12.261Z,35.58
2022-11-29T11:00:55.252Z,30.83
2022-11-29T11:03:33.587Z,29.15
2022-11-29T11:06:17.060Z,28.77
2022-11-29T11:08:47.748Z,34.83
2022-11-29T11:11:22.750Z,31.88
2022-11-29T11:13:58.397Z,44.95
2022-11-29T11:16:26.616Z,35.40
2022-11-29T11:18:53.584Z,39.25
2022-11-29T11:21:24.030Z,32.05
2022-11-29T11:24:02.843Z,32.03
2022-11-29T11:26:42.959Z,26.05
2022-11-29T11:29:21.161Z,38.78
2022-11-29T11:31:54.434Z,33.90
2022-11-29T11:34:37.176Z,26.67
2022-11-29T11:37:33.433Z,37.35
2022-11-29T11:40:26.273Z,36.05
2022-11-29T11:42:53.032Z,35.78
2022-11-29T11:45:40.736Z,31.40
2022-11-29T11:48:19.069Z,33.15
2022-11-29T11:50:50.127Z,27.50
2022-11-29T11:53:24.237Z,33.75
2022-11-29T11:56:02.913Z,30.13
2022-11-29T11:58:37.113Z,35.28
2022-11-29T12:01:12.457Z,44.88
2022-11-29T12:03:50.757Z,38.72
2022-11-29T12:06:35.651Z,34.83
2022-11-29T12:09:08.393Z,30.02
2022-11-29T12:11:53.050Z,32.60
2022-11-29T12:14:35.589Z,35.65
2022-11-29T12:20:05.574Z,32.95
2022-11-29T12:22:48.486Z,36.22
2022-11-29T12:25:20.719Z,31.85
2022-11-29T12:27:49.955Z,27.15
2022-11-29T12:30:20.412Z,34.80
2022-11-29T12:33:44.579Z,30.65
2022-11-29T12:36:33.523Z,33.67
2022-11-29T12:39:08.613Z,31.38
2022-11-29T12:41:44.933Z,30.98
2022-11-29T12:44:22.662Z,37.53
2022-11-29T12:47:37.976Z,35.22
2022-11-29T12:50:46.276Z,28.92
2022-11-29T12:53:38.112Z,33.60
2022-11-29T12:56:14.813Z,39.23
2022-11-29T12:59:12.438Z,37.60
2022-11-29T13:01:57.949Z,31.45
2022-11-29T13:04:27.626Z,36.13
2022-11-29T13:07:02.945Z,36.35
2022-11-29T13:10:03.279Z,31.80
2022-11-29T13:13:14.555Z,34.15
2022-11-29T13:15:44.970Z,40.25
2022-11-29T13:18:17.217Z,39.63
2022-11-29T13:21:14.922Z,34.40
2022-11-29T13:24:08.251Z,46.97
2022-11-29T13:26:36.500Z,42.25
2022-11-29T13:29:04.007Z,36.15
2022-11-29T13:31:31.316Z,37.22
2022-11-29T13:34:15.226Z,36.03
2022-11-29T13:36:52.941Z,38.42
2022-11-29T13:39:47.214Z,47.10
2022-11-29T13:42:13.770Z,31.35
2022-11-29T13:45:08.113Z,48.22
2022-11-29T13:47:50.875Z,28.27
2022-11-29T13:50:43.683Z,31.75
2022-11-29T13:53:20.404Z,39.85
2022-11-29T13:56:02.594Z,48.08
2022-11-29T13:58:29.191Z,33.40
2022-11-29T14:01:02.750Z,31.92
2022-11-29T14:03:35.977Z,40.92
2022-11-29T14:06:02.795Z,44.08
2022-11-29T14:08:48.125Z,31.27
2022-11-29T14:11:45.808Z,44.63
2022-11-29T14:14:27.693Z,42.45
2022-11-29T14:17:05.699Z,31.77
2022-11-29T14:19:36.687Z,44.05
2022-11-29T14:22:05.317Z,36.17
2022-11-29T14:24:37.792Z,39.63
2022-11-29T14:27:07.582Z,32.78
2022-11-29T14:29:49.517Z,42.70
2022-11-29T14:32:21.994Z,43.17
2022-11-29T14:34:57.885Z,44.95
2022-11-29T14:37:59.032Z,41.85
2022-11-29T14:40:41.438Z,41.08
2022-11-29T14:43:35.221Z,42.20
2022-11-29T14:46:14.105Z,42.85
2022-11-29T14:48:55.997Z,42.22
2022-11-29T14:51:24.963Z,43.08
2022-11-29T14:54:18.260Z,44.78
2022-11-29T14:56:47.148Z,40.00
2022-11-29T14:59:35.792Z,44.83
2022-11-29T15:02:07.733Z,43.40
2022-11-29T15:04:36.433Z,40.42
2022-11-29T15:07:04.572Z,40.97
2022-11-29T15:09:33.256Z,42.88
2022-11-29T15:12:06.722Z,54.63
2022-11-29T15:14:58.595Z,45.83
2022-11-29T15:17:30.369Z,37.28
2022-11-29T15:20:00.053Z,39.13
2022-11-29T15:22:52.927Z,46.80
2022-11-29T15:25:23.989Z,39.13
2022-11-29T15:27:54.799Z,42.50
2022-11-29T15:30:30.550Z,44.83
2022-11-29T15:32:59.356Z,40.53
2022-11-29T15:35:26.284Z,46.78
2022-11-29T15:37:53.668Z,47.78
2022-11-29T15:40:23.152Z,44.15
2022-11-29T15:43:11.283Z,38.92
2022-11-29T15:45:39.188Z,40.55
2022-11-29T15:48:32.486Z,39.53
2022-11-29T15:51:29.971Z,50.22
2022-11-29T15:54:13.223Z,41.47
2022-11-29T15:56:43.911Z,39.03
2022-11-29T15:59:25.004Z,43.20
2022-11-29T16:01:54.536Z,35.63
2022-11-29T16:04:24.252Z,36.88
2022-11-29T16:06:51.817Z,43.97
2022-11-29T16:09:28.604Z,39.53
2022-11-29T16:11:55.257Z,36.60
2022-11-29T16:14:25.019Z,55.15
2022-11-29T16:16:54.346Z,48.70
2022-11-29T16:19:37.840Z,43.47
2022-11-29T16:22:16.987Z,51.72
2022-11-29T16:24:54.467Z,53.30
2022-11-29T16:27:22.287Z,43.45
2022-11-29T16:29:50.058Z,50.67
2022-11-29T16:32:37.278Z,38.10
2022-11-29T16:35:36.496Z,44.47
2022-11-29T16:38:04.618Z,42.50
2022-11-29T16:40:33.338Z,54.15
2022-11-29T16:43:23.441Z,53.50
2022-11-29T16:46:22.369Z,46.17
2022-11-29T16:48:50.228Z,46.38
2022-11-29T16:51:31.849Z,45.70
2022-11-29T16:54:22.898Z,49.83
2022-11-29T16:56:55.282Z,45.50
2022-11-29T17:01:55.130Z,46.80
2022-11-29T17:04:23.677Z,50.45
2022-11-29T17:06:52.680Z,45.15
2022-11-29T17:09:29.335Z,48.60
2022-11-29T17:11:59.538Z,44.25
2022-11-29T17:14:26.426Z,45.80
2022-11-29T17:16:53.105Z,43.53
2022-11-29T17:19:22.142Z,42.42
2022-11-29T17:21:49.135Z,42.72
2022-11-29T17:24:18.395Z,42.78
2022-11-29T17:26:45.739Z,46.38
2022-11-29T17:29:14.285Z,43.22
2022-11-29T17:31:42.774Z,44.42
2022-11-29T17:34:09.443Z,48.35
2022-11-29T17:36:36.415Z,41.97
2022-11-29T17:39:04.632Z,47.90
2022-11-29T17:41:32.552Z,40.08
2022-11-29T17:43:59.765Z,48.25
2022-11-29T17:46:32.316Z,37.88
2022-11-29T17:49:00.318Z,45.72
2022-11-29T17:54:14.208Z,42.17
2022-11-29T17:56:40.769Z,45.35
2022-11-29T17:59:07.397Z,35.75
2022-11-29T18:01:35.734Z,54.45
2022-11-29T18:04:04.476Z,44.15
2022-11-29T18:06:36.127Z,34.25
2022-11-29T18:09:04.778Z,38.33
2022-11-29T18:11:42.942Z,54.78
2022-11-29T18:14:13.996Z,43.20
2022-11-29T18:16:40.637Z,49.80
2022-11-29T18:19:11.643Z,47.38
2022-11-29T18:21:38.482Z,56.80
2022-11-29T18:24:06.976Z,43.72
2022-11-29T18:26:35.712Z,49.03
2022-11-29T18:29:06.936Z,46.42
2022-11-29T18:31:36.783Z,44.80
2022-11-29T18:34:11.620Z,41.80
2022-11-29T18:36:48.628Z,53.67
2022-11-29T18:39:17.548Z,58.75
2022-11-29T18:41:47.009Z,44.50
2022-11-29T18:44:15.464Z,50.55
2022-11-29T18:46:43.809Z,52.47
2022-11-29T18:49:15.198Z,40.72
2022-11-29T18:51:44.309Z,46.53
2022-11-29T18:54:11.473Z,49.80
2022-11-29T18:56:38.717Z,49.13
2022-11-29T18:59:10.943Z,51.88
2022-11-29T19:01:42.158Z,53.13
2022-11-29T19:04:20.260Z,61.80
2022-11-29T19:06:47.506Z,49.47
2022-11-29T19:09:17.377Z,51.67
2022-11-29T19:11:44.019Z,53.55
2022-11-29T19:14:12.518Z,61.53
2022-11-29T19:16:41.950Z,47.92
2022-11-29T19:19:08.698Z,53.63
2022-11-29T19:21:35.870Z,63.15
2022-11-29T19:24:04.607Z,60.40
2022-11-29T19:26:32.301Z,68.38
2022-11-29T19:29:00.721Z,57.05
2022-11-29T19:31:27.890Z,65.88
2022-11-29T19:33:55.257Z,57.58
2022-11-29T19:36:24.917Z,58.22
2022-11-29T19:38:54.061Z,66.35
2022-11-29T19:41:24.016Z,69.07
2022-11-29T19:43:51.126Z,56.08
2022-11-29T19:46:22.854Z,59.70
2022-11-29T19:48:52.313Z,52.58
2022-11-29T19:51:19.240Z,61.40
2022-11-29T19:53:46.906Z,57.33
2022-11-29T19:56:15.728Z,61.17
2022-11-29T19:58:43.036Z,59.97
2022-11-29T20:01:18.416Z,64.28
2022-11-29T20:03:45.477Z,58.65
2022-11-29T20:06:16.165Z,57.38
2022-11-29T20:08:43.695Z,52.50
2022-11-29T20:11:22.590Z,64.72
2022-11-29T20:13:58.194Z,62.45
2022-11-29T20:16:26.017Z,57.08
2022-11-29T20:18:53.504Z,69.95
2022-11-29T20:21:25.352Z,62.17
2022-11-29T20:23:57.368Z,58.45
2022-11-29T20:26:24.771Z,58.60
2022-11-29T20:28:51.589Z,55.88
2022-11-29T20:31:21.458Z,55.72
2022-11-29T20:33:49.547Z,70.85
2022-11-29T20:36:29.823Z,60.80
2022-11-29T20:39:36.064Z,63.35
2022-11-29T20:42:25.001Z,57.47
2022-11-29T20:45:06.915Z,61.17
2022-11-29T20:47:40.969Z,66.18
2022-11-29T20:50:08.064Z,59.67
2022-11-29T20:52:50.664Z,85.35
2022-11-29T20:55:17.802Z,59.38
2022-11-29T20:57:44.517Z,65.18
2022-11-29T21:00:12.166Z,62.90
2022-11-29T21:02:39.553Z,60.10
2022-11-29T21:05:06.956Z,71.72
2022-11-29T21:07:33.949Z,69.50
2022-11-29T21:10:01.664Z,65.32
2022-11-29T21:12:29.733Z,64.45
2022-11-29T21:14:57.028Z,65.15
2022-11-29T21:17:27.536Z,69.78
2022-11-29T21:19:58.716Z,61.00
2022-11-29T21:23:00.652Z,59.08
2022-11-29T21:25:36.615Z,72.27
2022-11-29T21:28:08.898Z,70.72
2022-11-29T21:33:02.424Z,56.40
2022-11-29T21:35:28.991Z,74.97
2022-11-29T21:38:00.244Z,75.90
2022-11-29T21:40:27.646Z,71.88
2022-11-29T21:42:54.332Z,77.10
2022-11-29T21:45:20.906Z,70.70
2022-11-29T21:47:47.554Z,70.25
2022-11-29T21:50:14.314Z,81.80
2022-11-29T21:52:40.951Z,82.85
2022-11-29T21:55:07.925Z,75.97
2022-11-29T21:57:34.489Z,67.25
2022-11-29T22:00:01.114Z,78.30
2022-11-29T22:02:27.807Z,89.78
2022-11-29T22:04:54.589Z,87.93
2022-11-29T22:07:21.216Z,74.90
2022-11-29T22:09:47.881Z,71.75
2022-11-29T22:12:32.928Z,79.70
2022-11-29T22:15:00.861Z,60.40
2022-11-29T22:17:27.508Z,68.47
2022-11-29T22:19:54.121Z,72.82
2022-11-29T22:22:20.703Z,64.63
2022-11-29T22:24:47.584Z,69.55
2022-11-29T22:27:14.549Z,73.15
2022-11-29T22:29:41.137Z,61.72
2022-11-29T22:32:07.802Z,72.45
2022-11-29T22:34:34.429Z,74.75
2022-11-29T22:37:01.097Z,56.08
2022-11-29T22:39:27.874Z,68.05
2022-11-29T22:41:55.335Z,81.57
2022-11-29T22:44:25.692Z,74.93
2022-11-29T22:46:52.563Z,77.18
2022-11-29T22:49:19.733Z,78.88
2022-11-29T22:51:46.395Z,62.22
2022-11-29T22:54:16.217Z,71.80
2022-11-29T22:56:43.988Z,69.72
2022-11-29T22:59:10.753Z,69.40
2022-11-29T23:01:39.602Z,69.97
2022-11-29T23:04:08.027Z,76.13
2022-11-29T23:06:37.677Z,71.78
2022-11-29T23:09:07.219Z,72.90
2022-11-29T23:11:33.844Z,74.88
2022-11-29T23:14:00.537Z,66.97
2022-11-29T23:16:29.186Z,66.47
2022-11-29T23:18:58.155Z,66.75
2022-11-29T23:21:27.574Z,66.72
2022-11-29T23:23:56.729Z,69.00
2022-11-29T23:26:24.749Z,68.65
2022-11-29T23:28:52.437Z,64.68
2022-11-29T23:31:19.633Z,62.53
2022-11-29T23:33:46.443Z,66.03
2022-11-29T23:36:14.002Z,55.80
2022-11-29T23:38:41.493Z,70.03
2022-11-29T23:41:08.386Z,64.25
2022-11-29T23:43:36.965Z,64.20
2022-11-29T23:46:15.334Z,68.47
2022-11-29T23:48:42.509Z,62.92
2022-11-29T23:51:10.034Z,63.90
2022-11-29T23:53:36.719Z,61.53
2022-11-29T23:56:05.934Z,64.28
2022-11-29T23:58:34.037Z,49.28
